createdAt,value
2022-12-05T00:00:08.415Z,9.70
2022-12-05T00:02:37.451Z,9.80
2022-12-05T00:05:07.106Z,9.80
2022-12-05T00:07:36.127Z,9.80
2022-12-05T00:10:06.081Z,9.80
2022-12-05T00:12:35.091Z,9.80
2022-12-05T00:15:06.298Z,9.80
2022-12-05T00:17:35.322Z,9.80
2022-12-05T00:20:04.662Z,9.80
2022-12-05T00:22:36.222Z,9.70
2022-12-05T00:25:06.114Z,9.70
2022-12-05T00:27:35.480Z,9.70
2022-12-05T00:30:08.484Z,9.70
2022-12-05T00:32:37.486Z,9.60
2022-12-05T00:35:07.153Z,9.60
2022-12-05T00:37:36.476Z,9.60
2022-12-05T00:40:06.503Z,9.50
2022-12-05T00:42:35.459Z,9.50
2022-12-05T00:45:06.616Z,9.50
2022-12-05T00:47:36.457Z,9.40
2022-12-05T00:50:06.643Z,9.40
2022-12-05T00:52:35.634Z,9.40
2022-12-05T00:55:04.773Z,9.30
2022-12-05T00:57:33.903Z,9.30
2022-12-05T01:00:02.833Z,9.30
2022-12-05T01:02:33.366Z,9.30
2022-12-05T01:05:02.401Z,9.30
2022-12-05T01:07:31.886Z,9.30
2022-12-05T01:10:00.973Z,9.30
2022-12-05T01:12:29.907Z,9.30
2022-12-05T01:14:58.857Z,9.20
2022-12-05T01:17:27.831Z,9.20
2022-12-05T01:19:58.309Z,9.20
2022-12-05T01:22:27.482Z,9.30
2022-12-05T01:24:56.533Z,9.20
2022-12-05T01:27:25.754Z,9.30
2022-12-05T01:29:55.207Z,9.30
2022-12-05T01:32:24.738Z,9.30
2022-12-05T01:34:54.044Z,9.30
2022-12-05T01:37:24.723Z,9.30
2022-12-05T01:39:54.103Z,9.30
2022-12-05T01:42:26.386Z,9.30
2022-12-05T01:45:08.999Z,9.30
2022-12-05T01:47:38.894Z,9.30
2022-12-05T01:50:09.511Z,9.30
2022-12-05T01:52:40.493Z,9.30
2022-12-05T01:55:14.647Z,9.40
2022-12-05T01:57:43.814Z,9.40
2022-12-05T02:00:15.266Z,9.40
2022-12-05T02:02:49.740Z,9.40
2022-12-05T02:05:22.130Z,9.40
2022-12-05T02:07:53.477Z,9.40
2022-12-05T02:10:23.300Z,9.40
2022-12-05T02:12:53.464Z,9.40
2022-12-05T02:15:42.980Z,9.40
2022-12-05T02:18:24.314Z,9.50
2022-12-05T02:21:04.381Z,9.50
2022-12-05T02:24:00.953Z,9.50
2022-12-05T02:26:59.449Z,9.50
2022-12-05T02:29:53.017Z,9.50
2022-12-05T02:32:35.856Z,9.50
2022-12-05T02:35:15.278Z,9.50
2022-12-05T02:37:53.022Z,9.60
2022-12-05T02:40:27.843Z,9.60
2022-12-05T02:43:02.171Z,9.60
2022-12-05T02:45:35.388Z,9.60
2022-12-05T02:48:07.438Z,9.60
2022-12-05T02:50:40.136Z,9.60
2022-12-05T02:53:13.696Z,9.60
2022-12-05T02:55:44.668Z,9.60
2022-12-05T02:58:18.580Z,9.60
2022-12-05T03:00:54.501Z,9.60
2022-12-05T03:03:25.947Z,9.60
2022-12-05T03:06:01.674Z,9.70
2022-12-05T03:08:35.976Z,9.70
2022-12-05T03:11:05.367Z,9.70
2022-12-05T03:13:41.874Z,9.70
2022-12-05T03:16:16.144Z,9.70
2022-12-05T03:18:50.024Z,9.70
2022-12-05T03:21:29.726Z,9.60
2022-12-05T03:24:05.868Z,9.70
2022-12-05T03:26:46.042Z,9.70
2022-12-05T03:29:37.696Z,9.70
2022-12-05T03:32:11.226Z,9.70
2022-12-05T03:35:04.022Z,9.70
2022-12-05T03:37:42.091Z,9.70
2022-12-05T03:40:20.978Z,9.60
2022-12-05T03:42:55.606Z,9.60
2022-12-05T03:45:32.953Z,9.60
2022-12-05T03:48:09.072Z,9.70
2022-12-05T03:50:43.531Z,9.60
2022-12-05T03:53:20.001Z,9.60
2022-12-05T03:55:56.923Z,9.60
2022-12-05T03:58:31.591Z,9.70
2022-12-05T04:01:03.961Z,9.60
2022-12-05T04:03:42.367Z,9.70
2022-12-05T04:06:18.408Z,9.60
2022-12-05T04:08:52.213Z,9.60
2022-12-05T04:11:25.654Z,9.60
2022-12-05T04:13:58.567Z,9.60
2022-12-05T04:16:50.164Z,9.60
2022-12-05T04:19:24.445Z,9.60
2022-12-05T04:21:56.068Z,9.60
2022-12-05T04:25:01.789Z,9.60
2022-12-05T04:27:37.703Z,9.70
2022-12-05T04:30:09.701Z,9.70
2022-12-05T04:32:46.012Z,9.70
2022-12-05T04:35:18.310Z,9.70
2022-12-05T04:37:55.062Z,9.70
2022-12-05T04:40:29.698Z,9.70
2022-12-05T04:43:02.778Z,9.70
2022-12-05T04:45:33.972Z,9.70
2022-12-05T04:48:07.547Z,9.60
2022-12-05T04:50:39.350Z,9.60
2022-12-05T04:53:12.402Z,9.40
2022-12-05T04:55:44.793Z,9.40
2022-12-05T04:58:16.120Z,9.30
2022-12-05T05:00:48.188Z,9.30
2022-12-05T05:03:23.731Z,9.20
2022-12-05T05:05:55.452Z,9.30
2022-12-05T05:08:29.015Z,9.30
2022-12-05T05:11:08.523Z,9.30
2022-12-05T05:13:37.503Z,9.30
2022-12-05T05:16:08.475Z,9.30
2022-12-05T05:18:37.541Z,9.30
2022-12-05T05:21:06.775Z,9.30
2022-12-05T05:23:37.167Z,9.30
2022-12-05T05:26:06.345Z,9.30
2022-12-05T05:28:35.337Z,9.30
2022-12-05T05:31:04.888Z,9.30
2022-12-05T05:33:34.611Z,9.30
2022-12-05T05:36:05.630Z,9.30
2022-12-05T05:38:38.969Z,9.30
2022-12-05T05:41:12.845Z,9.40
2022-12-05T05:43:41.857Z,9.40
2022-12-05T05:46:11.580Z,9.50
2022-12-05T05:48:40.833Z,9.50
2022-12-05T05:51:12.468Z,9.40
2022-12-05T05:53:42.983Z,9.40
2022-12-05T05:56:17.210Z,9.30
2022-12-05T05:58:55.466Z,9.20
2022-12-05T06:01:24.729Z,9.20
2022-12-05T06:03:53.801Z,9.20
2022-12-05T06:06:23.512Z,9.10
2022-12-05T06:08:54.744Z,9.10
2022-12-05T06:11:26.888Z,9.10
2022-12-05T06:13:57.247Z,9.00
2022-12-05T06:16:26.958Z,9.00
2022-12-05T06:18:56.020Z,9.00
2022-12-05T06:21:25.431Z,8.90
2022-12-05T06:23:56.124Z,8.90
2022-12-05T06:26:25.271Z,8.90
2022-12-05T06:28:54.619Z,8.90
2022-12-05T06:31:27.154Z,8.90
2022-12-05T06:33:56.276Z,8.90
2022-12-05T06:36:26.812Z,8.90
2022-12-05T06:38:58.289Z,8.90
2022-12-05T06:41:27.977Z,8.90
2022-12-05T06:44:01.893Z,9.00
2022-12-05T06:46:31.751Z,9.00
2022-12-05T06:49:01.120Z,9.00
2022-12-05T06:51:30.137Z,9.10
2022-12-05T06:54:00.597Z,9.10
2022-12-05T06:56:29.769Z,9.00
2022-12-05T06:58:58.797Z,9.00
2022-12-05T07:01:39.184Z,9.00
2022-12-05T07:04:12.429Z,9.00
2022-12-05T07:06:46.187Z,8.90
2022-12-05T07:09:21.405Z,9.00
2022-12-05T07:11:51.285Z,9.00
2022-12-05T07:14:49.680Z,8.90
2022-12-05T07:17:09.392Z,8.90
2022-12-05T07:19:38.421Z,8.90
2022-12-05T07:22:12.024Z,8.80
2022-12-05T07:24:45.824Z,8.90
2022-12-05T07:27:15.364Z,8.80
2022-12-05T07:29:44.372Z,8.80
2022-12-05T07:32:13.390Z,8.80
2022-12-05T07:34:42.457Z,8.80
2022-12-05T07:37:11.427Z,8.90
2022-12-05T07:39:40.808Z,8.90
2022-12-05T07:42:11.193Z,8.90
2022-12-05T07:44:40.107Z,8.90
2022-12-05T07:47:09.317Z,8.90
2022-12-05T07:49:38.334Z,9.00
2022-12-05T07:52:07.420Z,9.00
2022-12-05T07:54:36.578Z,9.00
2022-12-05T07:57:05.845Z,9.00
2022-12-05T07:59:36.273Z,9.00
2022-12-05T08:02:05.318Z,9.00
2022-12-05T08:04:34.294Z,8.90
2022-12-05T08:07:03.268Z,8.90
2022-12-05T08:09:32.368Z,9.00
2022-12-05T08:12:01.380Z,9.00
2022-12-05T08:14:30.358Z,9.00
2022-12-05T08:17:00.779Z,9.10
2022-12-05T08:19:29.814Z,9.10
2022-12-05T08:21:58.802Z,9.10
2022-12-05T08:24:27.787Z,9.20
2022-12-05T08:26:56.875Z,9.20
2022-12-05T08:29:25.854Z,9.20
2022-12-05T08:31:54.964Z,9.20
2022-12-05T08:34:25.282Z,9.10
2022-12-05T08:36:54.236Z,9.10
2022-12-05T08:39:23.237Z,9.00
2022-12-05T08:41:53.208Z,9.00
2022-12-05T08:44:22.230Z,8.90
2022-12-05T08:46:51.972Z,8.90
2022-12-05T08:49:21.399Z,8.90
2022-12-05T08:51:51.780Z,8.90
2022-12-05T08:54:20.732Z,8.90
2022-12-05T08:56:52.678Z,8.90
2022-12-05T08:59:21.639Z,8.90
2022-12-05T09:01:51.713Z,8.90
2022-12-05T09:04:20.825Z,8.90
2022-12-05T09:06:51.819Z,8.90
2022-12-05T09:09:20.783Z,9.00
2022-12-05T09:11:51.031Z,9.00
2022-12-05T09:14:20.427Z,9.00
2022-12-05T09:16:49.496Z,9.10
2022-12-05T09:19:20.751Z,9.10
2022-12-05T09:21:49.631Z,9.20
2022-12-05T09:24:20.239Z,9.30
2022-12-05T09:26:49.230Z,9.30
2022-12-05T09:29:18.445Z,9.30
2022-12-05T09:31:51.638Z,9.30
2022-12-05T09:34:20.645Z,9.30
2022-12-05T09:37:05.639Z,9.20
2022-12-05T09:39:40.862Z,9.20
2022-12-05T09:42:27.334Z,9.20
2022-12-05T09:45:24.006Z,9.30
2022-12-05T09:47:58.750Z,9.30
2022-12-05T09:50:30.137Z,9.30
2022-12-05T09:53:10.922Z,9.30
2022-12-05T09:55:47.068Z,9.30
2022-12-05T09:58:27.487Z,9.40
2022-12-05T10:01:05.303Z,9.40
2022-12-05T10:03:44.176Z,9.40
2022-12-05T10:06:23.164Z,9.40
2022-12-05T10:09:08.809Z,9.40
2022-12-05T10:11:44.851Z,9.40
2022-12-05T10:14:22.139Z,9.40
2022-12-05T10:16:55.425Z,9.40
2022-12-05T10:19:28.336Z,9.40
2022-12-05T10:22:01.368Z,9.40
2022-12-05T10:24:34.753Z,9.40
2022-12-05T10:27:08.798Z,9.40
2022-12-05T10:29:43.948Z,9.40
2022-12-05T10:32:17.781Z,9.50
2022-12-05T10:34:47.593Z,9.50
2022-12-05T10:37:18.725Z,9.50
2022-12-05T10:39:48.664Z,9.50
2022-12-05T10:42:23.611Z,9.50
2022-12-05T10:44:58.359Z,9.50
2022-12-05T10:47:27.902Z,9.60
2022-12-05T10:49:59.323Z,9.70
2022-12-05T10:52:28.559Z,9.70
2022-12-05T10:55:01.817Z,9.80
2022-12-05T10:57:32.359Z,9.70
2022-12-05T11:00:13.467Z,9.70
2022-12-05T11:02:44.418Z,9.60
2022-12-05T11:05:13.958Z,9.60
2022-12-05T11:07:50.603Z,9.70
2022-12-05T11:10:27.379Z,9.60
2022-12-05T11:13:00.637Z,9.60
2022-12-05T11:15:31.159Z,9.60
2022-12-05T11:18:19.757Z,9.60
2022-12-05T11:20:49.045Z,9.50
2022-12-05T11:23:25.347Z,9.50
2022-12-05T11:25:55.431Z,9.50
2022-12-05T11:28:32.750Z,9.50
2022-12-05T11:31:03.905Z,9.50
2022-12-05T11:33:34.209Z,9.50
2022-12-05T11:36:12.700Z,9.50
2022-12-05T11:38:43.441Z,9.50
2022-12-05T11:41:43.982Z,9.50
2022-12-05T11:44:27.446Z,9.50
2022-12-05T11:47:08.441Z,9.40
2022-12-05T11:49:53.755Z,9.50
2022-12-05T11:52:34.704Z,9.40
2022-12-05T11:55:16.198Z,9.40
2022-12-05T11:58:11.927Z,9.40
2022-12-05T12:00:51.472Z,9.40
2022-12-05T12:03:39.729Z,9.30
2022-12-05T12:06:24.853Z,9.30
2022-12-05T12:09:09.093Z,9.30
2022-12-05T12:11:44.740Z,9.20
2022-12-05T12:14:21.664Z,9.10
2022-12-05T12:17:02.014Z,9.10
2022-12-05T12:19:50.934Z,9.10
2022-12-05T12:22:35.839Z,9.10
2022-12-05T12:25:25.954Z,9.20
2022-12-05T12:28:11.218Z,9.20
2022-12-05T12:30:59.030Z,9.20
2022-12-05T12:33:35.787Z,9.20
2022-12-05T12:36:16.795Z,9.20
2022-12-05T12:39:03.109Z,9.20
2022-12-05T12:41:52.692Z,9.30
2022-12-05T12:44:58.745Z,9.30
2022-12-05T12:47:40.383Z,9.30
2022-12-05T12:50:18.384Z,9.30
2022-12-05T12:53:07.597Z,9.20
2022-12-05T12:55:43.350Z,9.20
2022-12-05T12:58:30.226Z,9.20
2022-12-05T13:01:07.488Z,9.20
2022-12-05T13:03:46.114Z,9.20
2022-12-05T13:06:24.937Z,9.20
2022-12-05T13:08:58.771Z,9.10
2022-12-05T13:11:35.507Z,9.10
2022-12-05T13:14:10.244Z,9.10
2022-12-05T13:16:46.153Z,9.00
2022-12-05T13:19:30.025Z,8.90
2022-12-05T13:22:01.410Z,8.90
2022-12-05T13:24:30.728Z,8.90
2022-12-05T13:27:02.096Z,9.00
2022-12-05T13:29:34.965Z,8.90
2022-12-05T13:32:05.380Z,8.90
2022-12-05T13:34:47.246Z,8.90
2022-12-05T13:37:40.544Z,8.90
2022-12-05T13:40:48.721Z,8.90
2022-12-05T13:43:20.642Z,8.90
2022-12-05T13:46:06.982Z,8.90
2022-12-05T13:48:38.862Z,8.90
2022-12-05T13:51:13.677Z,8.90
2022-12-05T13:53:48.327Z,8.90
2022-12-05T13:56:28.712Z,8.90
2022-12-05T13:58:58.923Z,8.90
2022-12-05T14:01:55.772Z,8.90
2022-12-05T14:04:50.621Z,8.90
2022-12-05T14:07:40.948Z,8.90
2022-12-05T14:10:13.266Z,8.90
2022-12-05T14:12:51.998Z,9.00
2022-12-05T14:15:33.109Z,9.00
2022-12-05T14:18:12.131Z,9.10
2022-12-05T14:21:01.600Z,9.10
2022-12-05T14:23:50.245Z,9.20
2022-12-05T14:26:49.467Z,9.20
2022-12-05T14:29:57.823Z,9.20
2022-12-05T14:32:31.126Z,9.20
2022-12-05T14:35:05.929Z,9.20
2022-12-05T14:37:37.556Z,9.20
2022-12-05T14:40:20.316Z,9.20
2022-12-05T14:42:56.131Z,9.20
2022-12-05T14:45:29.771Z,9.20
2022-12-05T14:48:00.895Z,9.20
2022-12-05T14:50:52.769Z,9.10
2022-12-05T14:53:34.350Z,9.10
2022-12-05T14:56:21.880Z,9.10
2022-12-05T14:58:59.364Z,9.10
2022-12-05T15:01:31.736Z,9.10
2022-12-05T15:04:07.699Z,9.10
2022-12-05T15:06:46.018Z,9.10
2022-12-05T15:09:44.678Z,9.10
2022-12-05T15:12:18.300Z,9.10
2022-12-05T15:14:56.448Z,9.00
2022-12-05T15:17:31.054Z,9.00
2022-12-05T15:20:05.324Z,9.00
2022-12-05T15:22:38.855Z,8.90
2022-12-05T15:25:28.277Z,8.90
2022-12-05T15:28:00.353Z,8.90
2022-12-05T15:30:32.485Z,8.90
2022-12-05T15:33:02.383Z,8.90
2022-12-05T15:35:35.168Z,8.80
2022-12-05T15:38:10.687Z,8.80
2022-12-05T15:40:39.779Z,8.90
2022-12-05T15:43:29.821Z,8.80
2022-12-05T15:46:27.815Z,8.90
2022-12-05T15:48:59.675Z,8.80
2022-12-05T15:51:36.083Z,8.80
2022-12-05T15:54:10.377Z,8.80
2022-12-05T15:56:43.258Z,8.90
2022-12-05T15:59:18.408Z,8.90
2022-12-05T16:01:52.833Z,8.80
2022-12-05T16:04:29.846Z,8.80
2022-12-05T16:07:04.717Z,8.80
2022-12-05T16:09:35.194Z,8.70
2022-12-05T16:12:07.416Z,8.70
2022-12-05T16:17:31.320Z,8.80
2022-12-05T16:20:13.697Z,8.80
2022-12-05T16:22:49.045Z,8.70
2022-12-05T16:25:20.064Z,8.70
2022-12-05T16:28:01.979Z,8.70
2022-12-05T16:30:32.256Z,8.70
2022-12-05T16:33:06.468Z,8.70
2022-12-05T16:35:38.351Z,8.70
2022-12-05T16:38:11.878Z,8.70
2022-12-05T16:40:42.472Z,8.70
2022-12-05T16:43:22.236Z,8.70
2022-12-05T16:45:52.462Z,8.80
2022-12-05T16:48:28.065Z,8.80
2022-12-05T16:51:18.905Z,8.80
2022-12-05T16:53:50.307Z,8.80
2022-12-05T16:56:25.411Z,8.80
2022-12-05T16:58:55.230Z,8.80
2022-12-05T17:01:26.197Z,8.80
2022-12-05T17:03:58.826Z,8.80
2022-12-05T17:06:28.244Z,8.80
2022-12-05T17:08:57.248Z,8.80
2022-12-05T17:11:28.985Z,8.70
2022-12-05T17:13:58.777Z,8.70
2022-12-05T17:16:28.951Z,8.70
2022-12-05T17:18:59.453Z,8.70
2022-12-05T17:21:32.691Z,8.70
2022-12-05T17:24:02.229Z,8.70
2022-12-05T17:26:31.320Z,8.70
2022-12-05T17:29:00.301Z,8.70
2022-12-05T17:31:29.612Z,8.70
2022-12-05T17:34:00.079Z,8.70
2022-12-05T17:36:29.210Z,8.70
2022-12-05T17:38:58.194Z,8.70
2022-12-05T17:41:27.233Z,8.70
2022-12-05T17:43:57.222Z,8.70
2022-12-05T17:46:26.350Z,8.70
2022-12-05T17:48:55.422Z,8.70
2022-12-05T17:51:25.992Z,8.80
2022-12-05T17:53:54.977Z,8.80
2022-12-05T17:56:24.052Z,8.80
2022-12-05T17:58:53.025Z,8.80
2022-12-05T18:01:22.243Z,8.80
2022-12-05T18:03:51.646Z,8.80
2022-12-05T18:06:20.595Z,8.80
2022-12-05T18:08:51.008Z,8.80
2022-12-05T18:11:19.989Z,8.90
2022-12-05T18:13:49.053Z,8.90
2022-12-05T18:16:18.847Z,8.90
2022-12-05T18:18:48.063Z,8.90
2022-12-05T18:21:17.037Z,8.90
2022-12-05T18:23:46.022Z,8.80
2022-12-05T18:26:16.373Z,8.80
2022-12-05T18:28:47.063Z,8.80
2022-12-05T18:31:17.774Z,8.90
2022-12-05T18:33:47.854Z,8.90
2022-12-05T18:36:18.823Z,9.00
2022-12-05T18:38:52.062Z,9.00
2022-12-05T18:41:24.151Z,9.00
2022-12-05T18:43:53.170Z,9.00
2022-12-05T18:46:22.324Z,9.00
2022-12-05T18:48:51.459Z,8.90
2022-12-05T18:51:22.388Z,8.90
2022-12-05T18:53:53.446Z,8.90
2022-12-05T18:56:25.925Z,8.90
2022-12-05T18:58:57.103Z,8.90
2022-12-05T19:01:27.209Z,8.90
2022-12-05T19:03:57.621Z,8.90
2022-12-05T19:06:30.039Z,8.90
2022-12-05T19:09:02.117Z,8.90
2022-12-05T19:11:32.767Z,8.90
2022-12-05T19:14:03.146Z,8.90
2022-12-05T19:16:33.408Z,8.90
2022-12-05T19:19:03.585Z,8.90
2022-12-05T19:21:34.433Z,8.90
2022-12-05T19:24:05.061Z,8.90
2022-12-05T19:26:36.155Z,8.90
2022-12-05T19:29:05.850Z,8.90
2022-12-05T19:31:36.313Z,8.90
2022-12-05T19:34:07.813Z,8.90
2022-12-05T19:36:39.222Z,8.90
2022-12-05T19:39:09.069Z,8.90
2022-12-05T19:41:39.839Z,8.90
2022-12-05T19:44:09.086Z,8.90
2022-12-05T19:46:38.620Z,8.90
2022-12-05T19:49:23.597Z,8.90
2022-12-05T19:51:52.773Z,8.90
2022-12-05T19:54:24.035Z,9.00
2022-12-05T19:57:00.596Z,9.00
2022-12-05T19:59:29.578Z,9.00
2022-12-05T20:01:58.709Z,9.00
2022-12-05T20:04:27.895Z,9.00
2022-12-05T20:06:57.021Z,9.10
2022-12-05T20:09:26.496Z,9.10
2022-12-05T20:11:56.969Z,9.10
2022-12-05T20:14:26.725Z,9.10
2022-12-05T20:16:56.185Z,9.00
2022-12-05T20:19:25.546Z,9.00
2022-12-05T20:21:55.480Z,9.00
2022-12-05T20:24:24.513Z,9.00
2022-12-05T20:26:53.649Z,9.00
2022-12-05T20:29:24.048Z,9.00
2022-12-05T20:31:56.859Z,9.00
2022-12-05T20:34:25.923Z,9.00
2022-12-05T20:36:54.979Z,9.10
2022-12-05T20:39:24.875Z,9.10
2022-12-05T20:41:54.077Z,9.10
2022-12-05T20:44:24.546Z,9.10
2022-12-05T20:46:53.694Z,9.10
2022-12-05T20:49:22.686Z,9.20
2022-12-05T20:51:51.707Z,9.20
2022-12-05T20:54:20.774Z,9.20
2022-12-05T20:56:50.203Z,9.20
2022-12-05T20:59:19.185Z,9.20
2022-12-05T21:01:49.703Z,9.20
2022-12-05T21:04:18.820Z,9.10
2022-12-05T21:06:47.804Z,9.10
2022-12-05T21:09:26.297Z,9.20
2022-12-05T21:11:55.761Z,9.20
2022-12-05T21:14:25.044Z,9.30
2022-12-05T21:16:55.854Z,9.30
2022-12-05T21:19:25.010Z,9.30
2022-12-05T21:21:54.990Z,9.30
2022-12-05T21:24:24.364Z,9.30
2022-12-05T21:26:53.904Z,9.40
2022-12-05T21:29:23.037Z,9.40
2022-12-05T21:31:52.896Z,9.40
2022-12-05T21:34:23.314Z,9.50
2022-12-05T21:36:52.362Z,9.50
2022-12-05T21:39:21.352Z,9.50
2022-12-05T21:41:50.361Z,9.40
2022-12-05T21:44:19.946Z,9.40
2022-12-05T21:46:49.617Z,9.40
2022-12-05T21:49:18.609Z,9.50
2022-12-05T21:51:48.987Z,9.50
2022-12-05T21:54:17.999Z,9.50
2022-12-05T21:56:47.080Z,9.50
2022-12-05T21:59:16.040Z,9.50
2022-12-05T22:01:46.448Z,9.60
2022-12-05T22:04:15.415Z,9.50
2022-12-05T22:06:44.481Z,9.60
2022-12-05T22:09:15.603Z,9.60
2022-12-05T22:11:44.755Z,9.60
2022-12-05T22:14:13.774Z,9.60
2022-12-05T22:16:42.881Z,9.60
2022-12-05T22:19:11.908Z,9.60
2022-12-05T22:21:40.914Z,9.60
2022-12-05T22:24:09.968Z,9.60
2022-12-05T22:26:40.348Z,9.60
2022-12-05T22:29:09.518Z,9.60
2022-12-05T22:31:38.489Z,9.60
2022-12-05T22:34:07.832Z,9.60
2022-12-05T22:36:36.864Z,9.60
2022-12-05T22:39:05.846Z,9.70
2022-12-05T22:41:34.823Z,9.70
2022-12-05T22:44:05.268Z,9.70
2022-12-05T22:46:34.250Z,9.70
2022-12-05T22:49:05.363Z,9.70
2022-12-05T22:51:34.481Z,9.60
2022-12-05T22:54:03.464Z,9.50
2022-12-05T22:56:32.479Z,9.50
2022-12-05T22:59:04.249Z,9.50
2022-12-05T23:01:34.617Z,9.40
2022-12-05T23:04:05.518Z,9.40
2022-12-05T23:06:36.165Z,9.40
2022-12-05T23:09:07.374Z,9.40
2022-12-05T23:11:37.381Z,9.30
2022-12-05T23:14:08.123Z,9.30
2022-12-05T23:16:38.505Z,9.40
2022-12-05T23:19:08.502Z,9.30
2022-12-05T23:21:40.125Z,9.30
2022-12-05T23:24:10.933Z,9.30
2022-12-05T23:26:42.183Z,9.30
2022-12-05T23:29:14.068Z,9.30
2022-12-05T23:31:43.813Z,9.40
2022-12-05T23:34:13.686Z,9.40
2022-12-05T23:36:43.138Z,9.40
2022-12-05T23:39:12.495Z,9.50
2022-12-05T23:41:41.857Z,9.50
2022-12-05T23:44:12.503Z,9.50
2022-12-05T23:46:41.867Z,9.50
2022-12-05T23:49:12.471Z,9.50
2022-12-05T23:51:41.965Z,9.50
2022-12-05T23:54:12.755Z,9.50
2022-12-05T23:56:42.152Z,9.50
2022-12-05T23:59:12.936Z,9.60
